createdAt,value
2022-12-14T00:01:49.736Z,75.60
2022-12-14T00:04:18.067Z,75.60
2022-12-14T00:06:47.386Z,75.60
2022-12-14T00:09:16.592Z,75.60
2022-12-14T00:11:44.502Z,75.60
2022-12-14T00:14:12.389Z,75.50
2022-12-14T00:16:40.287Z,75.50
2022-12-14T00:19:08.194Z,75.50
2022-12-14T00:21:36.111Z,75.50
2022-12-14T00:24:05.780Z,75.50
2022-12-14T00:26:34.241Z,75.60
2022-12-14T00:29:03.321Z,75.60
2022-12-14T00:31:32.320Z,75.70
2022-12-14T00:34:01.114Z,75.70
2022-12-14T00:36:31.171Z,75.70
2022-12-14T00:38:59.139Z,75.70
2022-12-14T00:41:28.533Z,75.60
2022-12-14T00:43:56.624Z,75.50
2022-12-14T00:46:24.621Z,75.30
2022-12-14T00:48:52.580Z,75.20
2022-12-14T00:51:20.468Z,75.30
2022-12-14T00:53:48.928Z,75.30
2022-12-14T00:56:16.847Z,75.30
2022-12-14T00:58:51.683Z,75.50
2022-12-14T01:01:19.900Z,75.50
2022-12-14T01:03:47.964Z,75.50
2022-12-14T01:06:17.254Z,75.50
2022-12-14T01:08:45.378Z,75.30
2022-12-14T01:11:13.889Z,75.30
2022-12-14T01:13:42.749Z,75.50
2022-12-14T01:16:14.001Z,75.50
2022-12-14T01:18:44.113Z,75.50
2022-12-14T01:21:14.435Z,75.50
2022-12-14T01:23:43.930Z,75.50
2022-12-14T01:26:12.547Z,75.50
2022-12-14T01:28:40.488Z,75.50
2022-12-14T01:31:10.482Z,75.50
2022-12-14T01:33:39.961Z,75.50
2022-12-14T01:36:10.138Z,75.50
2022-12-14T01:38:38.217Z,75.50
2022-12-14T01:41:07.916Z,75.50
2022-12-14T01:43:50.344Z,75.60
2022-12-14T01:46:23.377Z,75.60
2022-12-14T01:48:55.851Z,75.60
2022-12-14T01:51:25.589Z,75.60
2022-12-14T01:53:54.105Z,75.60
2022-12-14T01:56:22.165Z,75.60
2022-12-14T01:58:50.580Z,75.50
2022-12-14T02:01:18.639Z,75.30
2022-12-14T02:03:49.735Z,75.30
2022-12-14T02:06:22.996Z,75.50
2022-12-14T02:08:53.406Z,75.30
2022-12-14T02:11:38.649Z,75.60
2022-12-14T02:14:06.672Z,75.50
2022-12-14T02:16:34.748Z,75.50
2022-12-14T02:19:02.880Z,75.50
2022-12-14T02:21:48.592Z,75.50
2022-12-14T02:24:44.377Z,75.50
2022-12-14T02:27:23.155Z,75.50
2022-12-14T02:30:04.587Z,75.30
2022-12-14T02:32:58.761Z,75.50
2022-12-14T02:35:38.648Z,75.50
2022-12-14T02:38:16.422Z,75.50
2022-12-14T02:40:55.756Z,75.50
2022-12-14T02:43:31.384Z,75.30
2022-12-14T02:46:08.273Z,75.30
2022-12-14T02:48:40.511Z,75.30
2022-12-14T02:51:16.130Z,75.30
2022-12-14T02:53:48.752Z,75.30
2022-12-14T02:56:23.697Z,75.50
2022-12-14T02:58:53.610Z,75.30
2022-12-14T03:01:26.181Z,75.30
2022-12-14T03:03:54.243Z,75.30
2022-12-14T03:06:26.880Z,75.30
2022-12-14T03:08:58.237Z,75.50
2022-12-14T03:11:32.343Z,75.30
2022-12-14T03:14:05.701Z,75.30
2022-12-14T03:16:40.973Z,75.30
2022-12-14T03:19:13.451Z,75.20
2022-12-14T03:21:45.243Z,75.20
2022-12-14T03:24:19.133Z,75.20
2022-12-14T03:26:53.837Z,75.20
2022-12-14T03:29:24.342Z,75.20
2022-12-14T03:31:56.142Z,75.20
2022-12-14T03:34:32.571Z,75.20
2022-12-14T03:37:05.604Z,75.20
2022-12-14T03:39:36.865Z,75.30
2022-12-14T03:42:11.471Z,75.30
2022-12-14T03:44:49.658Z,75.30
2022-12-14T03:47:35.580Z,75.20
2022-12-14T03:50:10.414Z,75.20
2022-12-14T03:52:43.174Z,75.10
2022-12-14T03:55:24.287Z,75.20
2022-12-14T03:58:14.393Z,75.20
2022-12-14T04:00:47.032Z,75.20
2022-12-14T04:03:23.803Z,75.20
2022-12-14T04:06:00.709Z,75.20
2022-12-14T04:08:36.245Z,75.30
2022-12-14T04:11:24.741Z,75.30
2022-12-14T04:14:17.180Z,75.20
2022-12-14T04:17:05.529Z,75.20
2022-12-14T04:19:40.732Z,75.20
2022-12-14T04:22:12.583Z,75.20
2022-12-14T04:25:14.311Z,75.20
2022-12-14T04:27:47.578Z,75.10
2022-12-14T04:30:15.612Z,75.10
2022-12-14T04:32:47.921Z,75.10
2022-12-14T04:35:22.077Z,75.20
2022-12-14T04:37:52.592Z,75.20
2022-12-14T04:40:24.043Z,75.10
2022-12-14T04:42:56.342Z,75.20
2022-12-14T04:45:29.092Z,75.20
2022-12-14T04:48:04.103Z,75.30
2022-12-14T04:50:38.873Z,75.30
2022-12-14T04:53:11.488Z,75.30
2022-12-14T04:55:44.676Z,75.20
2022-12-14T04:58:16.567Z,75.20
2022-12-14T05:00:59.354Z,75.30
2022-12-14T05:03:31.300Z,75.20
2022-12-14T05:06:09.672Z,75.30
2022-12-14T05:08:56.013Z,75.30
2022-12-14T05:11:52.562Z,75.20
2022-12-14T05:14:22.032Z,75.30
2022-12-14T05:16:50.971Z,75.40
2022-12-14T05:19:18.960Z,75.40
2022-12-14T05:21:48.243Z,75.30
2022-12-14T05:24:17.766Z,75.30
2022-12-14T05:26:46.790Z,75.20
2022-12-14T05:29:16.915Z,75.30
2022-12-14T05:31:49.537Z,75.20
2022-12-14T05:34:18.412Z,75.30
2022-12-14T05:36:47.777Z,75.30
2022-12-14T05:39:16.438Z,75.30
2022-12-14T05:41:45.166Z,75.30
2022-12-14T05:44:13.110Z,75.30
2022-12-14T05:46:41.058Z,75.30
2022-12-14T05:49:09.323Z,75.30
2022-12-14T05:51:37.201Z,75.40
2022-12-14T05:54:06.635Z,75.30
2022-12-14T05:56:34.540Z,75.40
2022-12-14T05:59:03.223Z,75.40
2022-12-14T06:01:31.388Z,75.30
2022-12-14T06:04:00.366Z,75.30
2022-12-14T06:06:28.327Z,75.20
2022-12-14T06:08:56.276Z,75.20
2022-12-14T06:11:25.527Z,75.20
2022-12-14T06:13:53.564Z,75.20
2022-12-14T06:16:23.180Z,75.00
2022-12-14T06:18:52.881Z,75.10
2022-12-14T06:21:22.456Z,75.10
2022-12-14T06:23:50.356Z,75.10
2022-12-14T06:26:18.905Z,75.20
2022-12-14T06:28:48.252Z,75.10
2022-12-14T06:31:17.863Z,75.10
2022-12-14T06:33:46.590Z,75.00
2022-12-14T06:36:19.004Z,75.00
2022-12-14T06:38:47.122Z,75.00
2022-12-14T06:41:15.067Z,75.00
2022-12-14T06:43:43.296Z,75.00
2022-12-14T06:46:15.838Z,74.90
2022-12-14T06:48:44.373Z,75.00
2022-12-14T06:51:12.654Z,75.00
2022-12-14T06:53:40.677Z,75.00
2022-12-14T06:56:09.721Z,75.10
2022-12-14T06:58:37.798Z,74.80
2022-12-14T07:01:07.388Z,74.90
2022-12-14T07:03:37.052Z,75.00
2022-12-14T07:06:06.035Z,74.90
2022-12-14T07:08:36.399Z,74.90
2022-12-14T07:11:04.907Z,74.80
2022-12-14T07:13:32.899Z,74.80
2022-12-14T07:16:01.356Z,74.80
2022-12-14T07:18:30.403Z,74.80
2022-12-14T07:21:01.738Z,74.90
2022-12-14T07:23:31.930Z,74.90
2022-12-14T07:26:02.655Z,75.00
2022-12-14T07:28:30.885Z,74.80
2022-12-14T07:30:59.899Z,74.80
2022-12-14T07:33:29.692Z,74.60
2022-12-14T07:36:05.560Z,74.60
2022-12-14T07:38:34.477Z,74.60
2022-12-14T07:41:06.523Z,74.60
2022-12-14T07:43:35.076Z,74.60
2022-12-14T07:46:05.476Z,74.60
2022-12-14T07:48:33.635Z,74.60
2022-12-14T07:51:08.341Z,74.80
2022-12-14T07:53:37.275Z,74.60
2022-12-14T07:56:06.916Z,74.80
2022-12-14T07:58:35.716Z,74.90
2022-12-14T08:01:12.508Z,74.90
2022-12-14T08:03:42.024Z,74.90
2022-12-14T08:06:12.764Z,75.00
2022-12-14T08:08:41.308Z,74.90
2022-12-14T08:11:10.011Z,74.90
2022-12-14T08:13:39.625Z,74.90
2022-12-14T08:16:09.443Z,74.90
2022-12-14T08:18:37.712Z,75.10
2022-12-14T08:21:07.514Z,75.00
2022-12-14T08:23:37.560Z,75.10
2022-12-14T08:26:06.949Z,75.20
2022-12-14T08:28:36.925Z,75.20
2022-12-14T08:31:06.886Z,75.20
2022-12-14T08:33:40.980Z,75.20
2022-12-14T08:36:10.723Z,75.20
2022-12-14T08:38:40.269Z,75.20
2022-12-14T08:41:10.402Z,75.20
2022-12-14T08:43:39.099Z,75.30
2022-12-14T08:46:09.340Z,75.30
2022-12-14T08:48:37.853Z,75.40
2022-12-14T08:51:07.084Z,75.40
2022-12-14T08:53:35.607Z,75.40
2022-12-14T08:56:08.207Z,75.30
2022-12-14T08:58:36.317Z,75.30
2022-12-14T09:01:05.683Z,75.50
2022-12-14T09:03:34.078Z,75.50
2022-12-14T09:06:07.116Z,75.50
2022-12-14T09:08:36.365Z,75.60
2022-12-14T09:11:06.997Z,75.70
2022-12-14T09:13:35.016Z,75.60
2022-12-14T09:16:05.610Z,75.70
2022-12-14T09:18:34.399Z,75.80
2022-12-14T09:21:02.848Z,75.70
2022-12-14T09:23:33.177Z,75.70
2022-12-14T09:26:03.149Z,75.80
2022-12-14T09:28:33.535Z,75.90
2022-12-14T09:31:03.345Z,75.70
2022-12-14T09:33:32.352Z,75.80
2022-12-14T09:36:02.523Z,75.70
2022-12-14T09:38:32.717Z,75.90
2022-12-14T09:41:08.355Z,75.90
2022-12-14T09:43:43.604Z,76.00
2022-12-14T09:46:22.809Z,75.90
2022-12-14T09:48:52.072Z,75.90
2022-12-14T09:51:23.797Z,76.40
2022-12-14T09:54:02.373Z,76.00
2022-12-14T09:56:31.274Z,76.10
2022-12-14T09:59:02.917Z,76.10
2022-12-14T10:04:53.444Z,76.30
2022-12-14T10:07:34.117Z,76.30
2022-12-14T10:10:10.996Z,76.30
2022-12-14T10:12:55.029Z,76.40
2022-12-14T10:15:30.525Z,76.50
2022-12-14T10:18:59.425Z,76.50
2022-12-14T10:21:14.763Z,76.60
2022-12-14T10:23:48.341Z,76.80
2022-12-14T10:26:20.423Z,76.60
2022-12-14T10:28:56.392Z,76.70
2022-12-14T10:31:36.879Z,76.80
2022-12-14T10:34:17.790Z,76.80
2022-12-14T10:36:53.956Z,76.90
2022-12-14T10:39:28.060Z,76.80
2022-12-14T10:42:02.568Z,77.10
2022-12-14T10:44:39.605Z,77.20
2022-12-14T10:47:17.468Z,77.20
2022-12-14T10:49:51.593Z,77.20
2022-12-14T10:52:22.892Z,77.30
2022-12-14T10:54:54.328Z,77.20
2022-12-14T10:57:24.802Z,77.30
2022-12-14T11:00:07.737Z,77.50
2022-12-14T11:02:41.106Z,77.50
2022-12-14T11:05:20.429Z,77.50
2022-12-14T11:07:49.826Z,77.60
2022-12-14T11:10:20.000Z,77.80
2022-12-14T11:13:01.899Z,77.70
2022-12-14T11:15:34.177Z,77.80
2022-12-14T11:18:07.563Z,77.70
2022-12-14T11:20:35.675Z,77.60
2022-12-14T11:23:17.938Z,77.80
2022-12-14T11:25:48.607Z,77.80
2022-12-14T11:28:23.263Z,77.90
2022-12-14T11:30:58.512Z,78.00
2022-12-14T11:33:33.601Z,78.00
2022-12-14T11:36:01.761Z,78.30
2022-12-14T11:38:31.520Z,78.60
2022-12-14T11:41:08.867Z,78.50
2022-12-14T11:43:39.795Z,78.60
2022-12-14T11:46:08.328Z,78.60
2022-12-14T11:48:46.884Z,78.70
2022-12-14T11:51:15.113Z,78.80
2022-12-14T11:53:43.169Z,78.50
2022-12-14T11:56:16.918Z,78.70
2022-12-14T11:58:50.028Z,78.50
2022-12-14T12:01:21.164Z,78.60
2022-12-14T12:03:52.372Z,78.70
2022-12-14T12:06:23.563Z,78.60
2022-12-14T12:08:57.847Z,78.80
2022-12-14T12:11:29.360Z,78.70
2022-12-14T12:14:00.670Z,78.70
2022-12-14T12:16:30.601Z,78.90
2022-12-14T12:19:11.860Z,79.00
2022-12-14T12:21:44.504Z,78.90
2022-12-14T12:24:19.355Z,79.10
2022-12-14T12:26:51.333Z,78.80
2022-12-14T12:29:26.857Z,79.00
2022-12-14T12:31:58.750Z,78.70
2022-12-14T12:34:32.441Z,78.60
2022-12-14T12:37:25.884Z,78.60
2022-12-14T12:39:59.525Z,78.60
2022-12-14T12:42:37.874Z,78.60
2022-12-14T12:45:13.990Z,78.60
2022-12-14T12:47:47.811Z,78.70
2022-12-14T12:50:20.239Z,78.60
2022-12-14T12:53:02.337Z,78.50
2022-12-14T12:55:35.539Z,78.50
2022-12-14T12:58:09.587Z,78.40
2022-12-14T13:00:39.070Z,78.40
2022-12-14T13:03:13.324Z,78.50
2022-12-14T13:05:47.900Z,78.50
2022-12-14T13:08:23.845Z,78.60
2022-12-14T13:11:25.583Z,78.70
2022-12-14T13:13:45.112Z,78.60
2022-12-14T13:16:26.233Z,78.60
2022-12-14T13:19:13.373Z,78.70
2022-12-14T13:21:51.463Z,78.80
2022-12-14T13:24:21.451Z,78.80
2022-12-14T13:27:31.544Z,78.70
2022-12-14T13:30:18.258Z,78.60
2022-12-14T13:33:05.801Z,78.60
2022-12-14T13:36:00.592Z,78.60
2022-12-14T13:38:51.187Z,78.70
2022-12-14T13:41:31.524Z,78.70
2022-12-14T13:44:18.301Z,78.70
2022-12-14T13:46:46.759Z,78.80
2022-12-14T13:49:22.823Z,78.90
2022-12-14T13:51:52.029Z,78.90
2022-12-14T13:54:27.670Z,79.10
2022-12-14T13:57:03.803Z,79.20
2022-12-14T13:59:34.845Z,79.10
2022-12-14T14:02:04.959Z,79.00
2022-12-14T14:04:33.696Z,79.10
2022-12-14T14:07:50.388Z,79.10
2022-12-14T14:10:32.907Z,79.30
2022-12-14T14:13:01.514Z,79.20
2022-12-14T14:15:38.297Z,79.20
2022-12-14T14:18:17.037Z,79.30
2022-12-14T14:20:47.536Z,79.30
2022-12-14T14:23:37.334Z,79.40
2022-12-14T14:26:27.356Z,79.20
2022-12-14T14:29:23.737Z,79.20
2022-12-14T14:31:58.438Z,79.30
2022-12-14T14:34:38.395Z,79.30
2022-12-14T14:37:32.715Z,79.40
2022-12-14T14:40:23.822Z,79.20
2022-12-14T14:43:06.169Z,79.30
2022-12-14T14:45:41.707Z,79.40
2022-12-14T14:48:12.700Z,79.30
2022-12-14T14:50:43.679Z,79.30
2022-12-14T14:53:27.078Z,79.20
2022-12-14T14:56:36.266Z,79.30
2022-12-14T14:59:37.702Z,79.30
2022-12-14T15:02:29.001Z,79.50
2022-12-14T15:05:17.612Z,79.60
2022-12-14T15:07:45.974Z,79.70
2022-12-14T15:10:24.877Z,79.70
2022-12-14T15:12:54.941Z,79.60
2022-12-14T15:15:27.545Z,79.60
2022-12-14T15:18:15.488Z,79.50
2022-12-14T15:20:57.245Z,79.50
2022-12-14T15:23:25.943Z,79.50
2022-12-14T15:25:59.744Z,79.40
2022-12-14T15:28:29.288Z,79.40
2022-12-14T15:31:00.129Z,79.40
2022-12-14T15:33:32.315Z,79.50
2022-12-14T15:36:05.328Z,79.50
2022-12-14T15:38:35.255Z,79.50
2022-12-14T15:41:05.286Z,79.40
2022-12-14T15:43:33.911Z,79.40
2022-12-14T15:46:04.123Z,79.30
2022-12-14T15:48:35.787Z,79.30
2022-12-14T15:51:06.129Z,79.30
2022-12-14T15:53:36.560Z,79.10
2022-12-14T15:56:18.265Z,79.10
2022-12-14T15:58:46.919Z,79.10
2022-12-14T16:01:20.812Z,79.10
2022-12-14T16:03:52.875Z,79.00
2022-12-14T16:06:21.543Z,79.10
2022-12-14T16:08:53.734Z,79.00
2022-12-14T16:11:26.356Z,79.00
2022-12-14T16:13:57.421Z,79.00
2022-12-14T16:16:25.541Z,79.00
2022-12-14T16:19:08.608Z,79.00
2022-12-14T16:21:47.468Z,78.90
2022-12-14T16:24:24.870Z,78.90
2022-12-14T16:26:58.135Z,78.90
2022-12-14T16:29:28.655Z,78.80
2022-12-14T16:32:03.806Z,78.90
2022-12-14T16:34:33.778Z,78.90
2022-12-14T16:39:52.723Z,78.90
2022-12-14T16:42:22.352Z,78.90
2022-12-14T16:44:53.772Z,78.90
2022-12-14T16:47:53.897Z,78.90
2022-12-14T16:50:55.485Z,79.00
2022-12-14T16:53:18.781Z,78.90
2022-12-14T16:56:05.363Z,78.90
2022-12-14T16:58:33.901Z,78.90
2022-12-14T17:01:06.023Z,78.90
2022-12-14T17:03:35.275Z,79.00
2022-12-14T17:06:07.311Z,79.00
2022-12-14T17:08:35.950Z,79.00
2022-12-14T17:11:03.896Z,79.00
2022-12-14T17:13:32.061Z,79.00
2022-12-14T17:16:01.758Z,79.00
2022-12-14T17:18:32.962Z,79.00
2022-12-14T17:21:01.762Z,79.00
2022-12-14T17:23:31.398Z,79.10
2022-12-14T17:25:59.694Z,79.10
2022-12-14T17:28:29.891Z,79.10
2022-12-14T17:31:01.715Z,79.00
2022-12-14T17:33:32.479Z,79.00
2022-12-14T17:36:00.859Z,79.00
2022-12-14T17:38:30.674Z,79.00
2022-12-14T17:40:58.833Z,79.00
2022-12-14T17:43:28.692Z,79.00
2022-12-14T17:46:01.001Z,79.00
2022-12-14T17:48:30.092Z,79.00
2022-12-14T17:50:58.120Z,78.90
2022-12-14T17:53:30.997Z,78.90
2022-12-14T17:55:59.553Z,78.90
2022-12-14T17:58:27.639Z,78.90
2022-12-14T18:01:01.794Z,78.90
2022-12-14T18:03:31.966Z,78.90
2022-12-14T18:06:00.889Z,78.80
2022-12-14T18:08:31.088Z,78.80
2022-12-14T18:11:00.830Z,78.70
2022-12-14T18:13:31.185Z,78.70
2022-12-14T18:16:00.454Z,78.70
2022-12-14T18:18:29.557Z,78.60
2022-12-14T18:21:00.146Z,78.60
2022-12-14T18:23:30.662Z,78.60
2022-12-14T18:26:00.425Z,78.50
2022-12-14T18:28:28.352Z,78.30
2022-12-14T18:30:59.863Z,78.50
2022-12-14T18:33:30.148Z,78.30
2022-12-14T18:35:58.636Z,78.20
2022-12-14T18:38:27.485Z,78.00
2022-12-14T18:40:58.496Z,77.80
2022-12-14T18:43:29.015Z,77.60
2022-12-14T18:45:57.741Z,77.60
2022-12-14T18:48:26.805Z,77.50
2022-12-14T18:50:56.104Z,77.70
2022-12-14T18:53:25.992Z,77.70
2022-12-14T18:55:54.855Z,77.80
2022-12-14T18:58:25.654Z,77.70
2022-12-14T19:00:56.269Z,77.70
2022-12-14T19:03:25.565Z,77.80
2022-12-14T19:06:26.784Z,77.90
2022-12-14T19:08:50.749Z,77.70
2022-12-14T19:11:27.755Z,77.40
2022-12-14T19:13:57.269Z,77.30
2022-12-14T19:16:25.377Z,77.30
2022-12-14T19:18:53.599Z,77.10
2022-12-14T19:21:21.595Z,77.20
2022-12-14T19:23:49.503Z,77.10
2022-12-14T19:26:17.448Z,77.10
2022-12-14T19:28:45.441Z,77.10
2022-12-14T19:31:14.981Z,77.10
2022-12-14T19:33:42.930Z,77.20
2022-12-14T19:36:11.664Z,77.30
2022-12-14T19:38:39.899Z,77.30
2022-12-14T19:41:11.074Z,77.30
2022-12-14T19:43:39.486Z,77.10
2022-12-14T19:46:08.214Z,76.90
2022-12-14T19:48:38.757Z,76.80
2022-12-14T19:51:08.753Z,76.70
2022-12-14T19:53:37.192Z,76.80
2022-12-14T19:56:05.963Z,76.90
2022-12-14T19:58:34.121Z,76.90
2022-12-14T20:01:02.252Z,76.70
2022-12-14T20:03:30.860Z,76.50
2022-12-14T20:06:00.884Z,76.40
2022-12-14T20:08:30.296Z,76.50
2022-12-14T20:10:58.937Z,76.40
2022-12-14T20:13:29.554Z,76.40
2022-12-14T20:15:59.020Z,76.30
2022-12-14T20:18:27.966Z,76.00
2022-12-14T20:21:04.168Z,76.00
2022-12-14T20:23:33.771Z,75.90
2022-12-14T20:26:02.590Z,75.70
2022-12-14T20:28:30.941Z,75.60
2022-12-14T20:31:00.449Z,75.30
2022-12-14T20:33:30.901Z,75.20
2022-12-14T20:35:59.672Z,75.30
2022-12-14T20:38:29.009Z,75.30
2022-12-14T20:40:57.012Z,75.00
2022-12-14T20:43:25.025Z,74.90
2022-12-14T20:45:53.040Z,75.00
2022-12-14T20:48:21.077Z,75.20
2022-12-14T20:50:50.536Z,75.40
2022-12-14T20:53:20.780Z,75.40
2022-12-14T20:55:50.049Z,75.40
2022-12-14T20:58:18.296Z,75.50
2022-12-14T21:00:46.831Z,75.40
2022-12-14T21:03:15.036Z,75.40
2022-12-14T21:05:43.817Z,75.40
2022-12-14T21:08:15.572Z,75.40
2022-12-14T21:10:43.840Z,75.60
2022-12-14T21:13:13.184Z,75.60
2022-12-14T21:15:42.271Z,75.80
2022-12-14T21:18:10.216Z,75.90
2022-12-14T21:20:38.248Z,76.00
2022-12-14T21:23:06.248Z,75.90
2022-12-14T21:25:34.345Z,76.00
2022-12-14T21:28:02.276Z,76.00
2022-12-14T21:30:31.545Z,75.80
2022-12-14T21:32:59.751Z,75.70
2022-12-14T21:35:27.896Z,75.60
2022-12-14T21:37:55.938Z,75.20
2022-12-14T21:40:49.706Z,75.30
2022-12-14T21:43:17.620Z,75.30
2022-12-14T21:45:46.978Z,75.40
2022-12-14T21:48:14.921Z,75.30
2022-12-14T21:50:45.245Z,75.40
2022-12-14T21:53:13.246Z,75.70
2022-12-14T21:55:49.406Z,75.90
2022-12-14T21:58:16.381Z,75.70
2022-12-14T22:00:46.022Z,75.50
2022-12-14T22:03:14.054Z,75.60
2022-12-14T22:05:42.067Z,75.80
2022-12-14T22:08:10.070Z,75.90
2022-12-14T22:10:38.000Z,76.00
2022-12-14T22:13:05.980Z,75.90
2022-12-14T22:15:33.893Z,75.80
2022-12-14T22:18:03.191Z,75.90
2022-12-14T22:20:31.595Z,76.00
2022-12-14T22:22:59.973Z,76.00
2022-12-14T22:25:28.009Z,76.00
2022-12-14T22:27:55.980Z,76.00
2022-12-14T22:30:27.201Z,75.90
2022-12-14T22:32:59.349Z,75.90
2022-12-14T22:35:28.746Z,75.80
2022-12-14T22:37:56.684Z,75.80
2022-12-14T22:40:24.578Z,75.80
2022-12-14T22:42:52.548Z,75.80
2022-12-14T22:45:20.939Z,75.80
2022-12-14T22:47:49.010Z,75.80
2022-12-14T22:50:17.229Z,75.60
2022-12-14T22:52:49.567Z,75.50
2022-12-14T22:55:18.225Z,75.60
2022-12-14T22:57:48.515Z,75.70
2022-12-14T23:00:16.953Z,75.60
2022-12-14T23:02:48.080Z,75.70
2022-12-14T23:05:17.140Z,75.70
2022-12-14T23:07:46.422Z,75.60
2022-12-14T23:10:31.987Z,75.60
2022-12-14T23:13:17.619Z,75.60
2022-12-14T23:16:03.268Z,75.50
2022-12-14T23:18:49.142Z,75.40
2022-12-14T23:21:34.937Z,75.40
2022-12-14T23:24:22.397Z,75.50
2022-12-14T23:27:09.828Z,75.30
2022-12-14T23:29:56.057Z,75.40
2022-12-14T23:32:41.949Z,75.40
2022-12-14T23:35:27.624Z,75.40
2022-12-14T23:38:13.312Z,75.40
2022-12-14T23:41:00.217Z,75.40
2022-12-14T23:43:45.709Z,75.40
2022-12-14T23:46:31.421Z,75.30
2022-12-14T23:49:16.970Z,75.40
2022-12-14T23:52:02.442Z,75.40
2022-12-14T23:54:47.932Z,75.40
2022-12-14T23:57:35.400Z,75.30
